| time (UTC) | temp C | wind direction | speed KPH | gust KPH | rain 1hr cm | rain 24hr cm | rain mn cm | humidity % | barometer mb |
| 20260507151256 | 18 | 88 | 3.2 | 8.0 | 0.00 | 0.08 | 0.08 | 67 | 1014.9 |
| 20260507150751 | 18 | 115 | 4.8 | 8.0 | 0.00 | 0.08 | 0.08 | 67 | 1014.8 |
| 20260507150245 | 18 | 79 | 4.8 | 11.3 | 0.00 | 0.08 | 0.08 | 67 | 1014.9 |
| 20260507145738 | 18 | 111 | 3.2 | 11.3 | 0.00 | 0.08 | 0.08 | 67 | 1014.9 |
| 20260507145232 | 18 | 113 | 3.2 | 6.4 | 0.00 | 0.08 | 0.08 | 67 | 1014.9 |
| 20260507144221 | 17 | 128 | 4.8 | 9.7 | 0.00 | 0.08 | 0.08 | 69 | 1015.0 |
| 20260507143208 | 18 | 99 | 4.8 | 12.9 | 0.00 | 0.08 | 0.08 | 68 | 1015.2 |
| 20260507142702 | 18 | 218 | 3.2 | 11.3 | 0.00 | 0.08 | 0.08 | 67 | 1015.1 |
| 20260507142156 | 18 | 242 | 4.8 | 17.7 | 0.00 | 0.08 | 0.08 | 68 | 1015.1 |
| 20260507141144 | 18 | 108 | 4.8 | 14.5 | 0.00 | 0.08 | 0.08 | 68 | 1015.1 |
| 20260507135626 | 17 | 98 | 3.2 | 8.0 | 0.00 | 0.08 | 0.08 | 69 | 1015.4 |
| 20260507135120 | 17 | 181 | 3.2 | 8.0 | 0.00 | 0.08 | 0.08 | 69 | 1015.4 |
| 20260507134620 | 17 | 120 | 1.6 | 9.7 | 0.00 | 0.08 | 0.08 | 69 | 1015.5 |
| 20260507134107 | 17 | 263 | 3.2 | 9.7 | 0.00 | 0.08 | 0.08 | 71 | 1015.4 |
| 20260507133602 | 17 | 38 | 3.2 | 9.7 | 0.00 | 0.08 | 0.08 | 72 | 1015.5 |
| 20260507133057 | 17 | 122 | 3.2 | 9.7 | 0.00 | 0.08 | 0.08 | 72 | 1015.5 |
| 20260507132551 | 17 | 120 | 6.4 | 11.3 | 0.00 | 0.08 | 0.08 | 72 | 1015.5 |
| 20260507132044 | 17 | 60 | 4.8 | 11.3 | 0.00 | 0.08 | 0.08 | 71 | 1015.5 |
| 20260507131542 | 17 | 125 | 1.6 | 8.0 | 0.00 | 0.08 | 0.08 | 72 | 1015.5 |
| 20260507131032 | 17 | 174 | 1.6 | 8.0 | 0.00 | 0.08 | 0.08 | 70 | 1015.6 |
| 20260507130527 | 16 | 216 | 1.6 | 8.0 | 0.00 | 0.08 | 0.08 | 73 | 1015.6 |
| 20260507125514 | 16 | 203 | 1.6 | 8.0 | 0.00 | 0.08 | 0.08 | 75 | 1015.7 |
| 20260507124511 | 16 | 187 | 3.2 | 6.4 | 0.00 | 0.08 | 0.08 | 75 | 1015.8 |
| 20260507123511 | 16 | 114 | 3.2 | 9.7 | 0.00 | 0.08 | 0.08 | 75 | 1015.9 |
| 20260507122508 | 16 | 127 | 1.6 | 8.0 | 0.00 | 0.08 | 0.08 | 74 | 1016.0 |
| 20260507122006 | 16 | 231 | 0.0 | 3.2 | 0.00 | 0.08 | 0.08 | 73 | 1016.1 |
| 20260507121507 | 16 | 108 | 1.6 | 4.8 | 0.00 | 0.08 | 0.08 | 74 | 1016.2 |
| 20260507121008 | 16 | 108 | 1.6 | 4.8 | 0.00 | 0.08 | 0.08 | 73 | 1016.4 |
| 20260507120508 | 16 | 129 | 0.0 | 3.2 | 0.00 | 0.08 | 0.08 | 73 | 1016.4 |
| 20260507120008 | 16 | 227 | 1.6 | 6.4 | 0.00 | 0.08 | 0.08 | 72 | 1016.4 |
| 20260507115508 | 16 | 149 | 3.2 | 8.0 | 0.00 | 0.08 | 0.08 | 72 | 1016.5 |
| 20260507115007 | 16 | 75 | 1.6 | 8.0 | 0.00 | 0.08 | 0.08 | 71 | 1016.5 |
| 20260507114508 | 16 | 212 | 0.0 | 6.4 | 0.00 | 0.08 | 0.08 | 69 | 1016.5 |
| 20260507114006 | 16 | 233 | 0.0 | 3.2 | 0.00 | 0.08 | 0.08 | 69 | 1016.5 |
| 20260507113509 | 16 | 293 | 1.6 | 4.8 | 0.00 | 0.08 | 0.08 | 68 | 1016.6 |
| 20260507113009 | 16 | 263 | 0.0 | 4.8 | 0.00 | 0.08 | 0.08 | 69 | 1016.6 |
| 20260507112004 | 16 | 263 | 1.6 | 8.0 | 0.00 | 0.08 | 0.08 | 68 | 1016.5 |
| 20260507111506 | 16 | 262 | 1.6 | 11.3 | 0.00 | 0.08 | 0.08 | 68 | 1016.6 |
| 20260507111005 | 16 | 262 | 1.6 | 11.3 | 0.00 | 0.08 | 0.08 | 68 | 1016.7 |
| 20260507110506 | 16 | 263 | 1.6 | 8.0 | 0.03 | 0.08 | 0.08 | 70 | 1016.8 |
| 20260507110008 | 16 | 263 | 0.0 | 4.8 | 0.03 | 0.08 | 0.08 | 71 | 1016.7 |
| 20260507105007 | 16 | 263 | 3.2 | 8.0 | 0.03 | 0.08 | 0.08 | 71 | 1016.9 |
| 20260507104506 | 16 | 263 | 3.2 | 8.0 | 0.03 | 0.08 | 0.08 | 72 | 1016.9 |
| 20260507104009 | 16 | 288 | 3.2 | 12.9 | 0.03 | 0.08 | 0.08 | 72 | 1016.9 |
| 20260507103507 | 16 | 262 | 1.6 | 12.9 | 0.03 | 0.08 | 0.08 | 72 | 1017.0 |
| 20260507103005 | 16 | 277 | 1.6 | 6.4 | 0.03 | 0.08 | 0.08 | 75 | 1017.0 |
| 20260507101959 | 16 | 303 | 1.6 | 9.7 | 0.05 | 0.08 | 0.08 | 74 | 1017.1 |
| 20260507101001 | 15 | 305 | 0.0 | 4.8 | 0.05 | 0.08 | 0.08 | 75 | 1017.2 |
| 20260507100459 | 15 | 349 | 0.0 | 4.8 | 0.03 | 0.05 | 0.05 | 74 | 1017.2 |
| 20260507094954 | 15 | 319 | 0.0 | 3.2 | 0.03 | 0.05 | 0.05 | 76 | 1017.2 |
| 20260507094454 | 15 | 287 | 0.0 | 1.6 | 0.03 | 0.05 | 0.05 | 77 | 1017.3 |
| 20260507093952 | 15 | 287 | 0.0 | 1.6 | 0.05 | 0.05 | 0.05 | 77 | 1017.3 |
| 20260507093450 | 15 | 308 | 0.0 | 0.0 | 0.05 | 0.05 | 0.05 | 78 | 1017.3 |
| 20260507092947 | 15 | 306 | 0.0 | 1.6 | 0.05 | 0.05 | 0.05 | 77 | 1017.3 |
| 20260507092446 | 15 | 308 | 0.0 | 1.6 | 0.05 | 0.05 | 0.05 | 77 | 1017.2 |
| 20260507091946 | 15 | 287 | 0.0 | 1.6 | 0.03 | 0.05 | 0.05 | 77 | 1017.2 |
| 20260507091447 | 15 | 315 | 0.0 | 1.6 | 0.03 | 0.05 | 0.05 | 78 | 1017.2 |
| 20260507090956 | 15 | 286 | 0.0 | 1.6 | 0.03 | 0.05 | 0.05 | 78 | 1017.2 |
| 20260507090442 | 15 | 287 | 0.0 | 1.6 | 0.03 | 0.05 | 0.05 | 77 | 1017.1 |
| 20260507085943 | 15 | 286 | 0.0 | 1.6 | 0.03 | 0.05 | 0.05 | 77 | 1017.1 |
| 20260507085442 | 15 | 287 | 0.0 | 1.6 | 0.03 | 0.05 | 0.05 | 78 | 1017.0 |
| 20260507084942 | 15 | 287 | 0.0 | 1.6 | 0.03 | 0.05 | 0.05 | 78 | 1017.0 |
| 20260507083942 | 15 | 287 | 0.0 | 1.6 | 0.00 | 0.03 | 0.03 | 78 | 1017.1 |
| 20260507082945 | 15 | 287 | 0.0 | 3.2 | 0.00 | 0.03 | 0.03 | 78 | 1017.2 |
| 20260507082439 | 15 | 307 | 1.6 | 4.8 | 0.00 | 0.03 | 0.03 | 78 | 1017.2 |
| 20260507081938 | 15 | 287 | 1.6 | 8.0 | 0.00 | 0.03 | 0.03 | 77 | 1017.2 |
| 20260507081438 | 15 | 288 | 1.6 | 8.0 | 0.00 | 0.03 | 0.03 | 76 | 1017.1 |
| 20260507080938 | 15 | 325 | 0.0 | 4.8 | 0.03 | 0.03 | 0.03 | 77 | 1017.1 |
| 20260507075940 | 14 | 310 | 1.6 | 4.8 | 0.03 | 0.03 | 0.03 | 77 | 1017.1 |
| 20260507075440 | 14 | 319 | 1.6 | 4.8 | 0.03 | 0.03 | 0.03 | 76 | 1017.1 |
| 20260507074442 | 14 | 298 | 0.0 | 3.2 | 0.03 | 0.03 | 0.03 | 77 | 1017.0 |
| 20260507073940 | 14 | 309 | 0.0 | 4.8 | 0.03 | 0.03 | 0.03 | 78 | 1016.9 |
| 20260507072940 | 13 | 308 | 1.6 | 8.0 | 0.03 | 0.03 | 0.03 | 76 | 1016.9 |
| 20260507072438 | 13 | 313 | 1.6 | 9.7 | 0.03 | 0.03 | 0.03 | 76 | 1016.8 |
| 20260507071938 | 13 | 321 | 1.6 | 9.7 | 0.03 | 0.03 | 0.03 | 76 | 1016.8 |
| 20260507071439 | 13 | 333 | 1.6 | 9.7 | 0.03 | 0.03 | 0.03 | 76 | 1016.8 |
| 20260507070938 | 13 | 297 | 1.6 | 9.7 | 0.00 | 0.00 | 0.00 | 75 | 1016.8 |
| 20260507070438 | 13 | 29 | 3.2 | 9.7 | 0.00 | 0.00 | 0.00 | 73 | 1016.7 |
| 20260507065936 | 14 | 345 | 3.2 | 9.7 | 0.00 | 0.00 | 0.00 | 73 | 1016.7 |
| 20260507065433 | 14 | 344 | 1.6 | 8.0 | 0.00 | 0.00 | 0.00 | 73 | 1016.7 |
| 20260507064933 | 14 | 48 | 0.0 | 4.8 | 0.00 | 0.00 | 0.00 | 73 | 1016.7 |
| 20260507064427 | 14 | 33 | 0.0 | 3.2 | 0.00 | 0.00 | 0.00 | 73 | 1016.7 |
| 20260507063415 | 14 | 351 | 0.0 | 4.8 | 0.00 | 0.00 | 0.00 | 72 | 1016.6 |
| 20260507062909 | 14 | 24 | 0.0 | 1.6 | 0.00 | 0.00 | 0.00 | 73 | 1016.6 |
| 20260507062405 | 14 | 22 | 0.0 | 3.2 | 0.00 | 0.00 | 0.00 | 72 | 1016.6 |
| 20260507061857 | 14 | 314 | 0.0 | 3.2 | 0.00 | 0.00 | 0.00 | 71 | 1016.6 |
| 20260507060846 | 14 | 314 | 0.0 | 4.8 | 0.00 | 0.00 | 0.00 | 70 | 1016.6 |
| 20260507060340 | 14 | 358 | 0.0 | 1.6 | 0.00 | 0.00 | 0.00 | 70 | 1016.5 |
| 20260507055834 | 14 | 117 | 0.0 | 1.6 | 0.00 | 0.00 | 0.00 | 68 | 1016.5 |
| 20260507055330 | 14 | 139 | 0.0 | 1.6 | 0.00 | 0.00 | 0.00 | 69 | 1016.4 |
| 20260507054830 | 14 | 139 | 0.0 | 0.0 | 0.00 | 0.00 | 0.00 | 69 | 1016.2 |
| 20260507054330 | 14 | 139 | 0.0 | 1.6 | 0.00 | 0.00 | 0.00 | 70 | 1016.1 |
| 20260507053830 | 13 | 138 | 0.0 | 3.2 | 0.00 | 0.00 | 0.00 | 70 | 1016.0 |
| 20260507053330 | 14 | 138 | 0.0 | 3.2 | 0.00 | 0.00 | 0.00 | 69 | 1016.0 |
| 20260507051831 | 13 | 113 | 0.0 | 1.6 | 0.00 | 0.00 | 0.00 | 72 | 1015.8 |
| 20260507051344 | 13 | 113 | 0.0 | 1.6 | 0.00 | 0.00 | 0.00 | 72 | 1015.7 |
| 20260507050330 | 13 | 113 | 0.0 | 1.6 | 0.00 | 0.00 | 0.00 | 74 | 1015.7 |
| 20260507045832 | 13 | 113 | 0.0 | 1.6 | 0.00 | 0.00 | 0.00 | 74 | 1015.6 |
| 20260507044332 | 12 | 113 | 0.0 | 1.6 | 0.00 | 0.00 | 0.00 | 75 | 1015.5 |
| 20260507043831 | 12 | 113 | 0.0 | 1.6 | 0.00 | 0.00 | 0.00 | 75 | 1015.3 |
| 20260507043333 | 12 | 120 | 0.0 | 1.6 | 0.00 | 0.00 | 0.00 | 76 | 1015.3 |
| 20260507042827 | 12 | 120 | 0.0 | 1.6 | 0.00 | 0.00 | 0.00 | 76 | 1015.2 |
| 20260507042321 | 12 | 120 | 0.0 | 1.6 | 0.00 | 0.00 | 0.00 | 76 | 1015.3 |
| 20260507041815 | 12 | 120 | 0.0 | 1.6 | 0.00 | 0.00 | 0.00 | 76 | 1015.3 |
| 20260507041309 | 12 | 120 | 0.0 | 1.6 | 0.00 | 0.00 | 0.00 | 76 | 1015.2 |
| 20260507040803 | 11 | 120 | 0.0 | 1.6 | 0.00 | 0.00 | 0.00 | 76 | 1015.2 |
| 20260507040257 | 11 | 120 | 0.0 | 1.6 | 0.00 | 0.00 | 0.00 | 76 | 1015.2 |
| 20260507035751 | 11 | 120 | 0.0 | 1.6 | 0.00 | 0.00 | 0.00 | 76 | 1015.1 |
| 20260507035245 | 11 | 120 | 0.0 | 1.6 | 0.00 | 0.00 | 0.00 | 76 | 1015.1 |
| 20260507034233 | 11 | 120 | 0.0 | 1.6 | 0.00 | 0.00 | 0.00 | 76 | 1015.1 |
| 20260507033726 | 11 | 120 | 0.0 | 1.6 | 0.00 | 0.00 | 0.00 | 76 | 1014.9 |
| 20260507032209 | 11 | 120 | 0.0 | 1.6 | 0.00 | 0.00 | 0.00 | 74 | 1014.8 |
| 20260507031703 | 12 | 117 | 0.0 | 1.6 | 0.00 | 0.00 | 0.00 | 73 | 1014.8 |
| 20260507031157 | 12 | 117 | 0.0 | 1.6 | 0.00 | 0.00 | 0.00 | 73 | 1014.8 |
| 20260507030145 | 12 | 117 | 0.0 | 0.0 | 0.00 | 0.00 | 0.00 | 73 | 1014.7 |
| 20260507025639 | 12 | 117 | 0.0 | 0.0 | 0.00 | 0.00 | 0.00 | 73 | 1014.7 |
| 20260507024628 | 12 | 117 | 0.0 | 1.6 | 0.00 | 0.00 | 0.00 | 73 | 1014.7 |
| 20260507023110 | 12 | 117 | 0.0 | 0.0 | 0.00 | 0.00 | 0.00 | 72 | 1014.6 |
| 20260507022602 | 12 | 117 | 0.0 | 0.0 | 0.00 | 0.00 | 0.00 | 72 | 1014.5 |
| 20260507022058 | 12 | 117 | 0.0 | 0.0 | 0.00 | 0.00 | 0.00 | 72 | 1014.6 |
| 20260507021551 | 12 | 117 | 0.0 | 1.6 | 0.00 | 0.00 | 0.00 | 71 | 1014.5 |
| 20260507021046 | 12 | 117 | 0.0 | 1.6 | 0.00 | 0.00 | 0.00 | 71 | 1014.5 |
| 20260507020033 | 12 | 117 | 0.0 | 1.6 | 0.00 | 0.00 | 0.00 | 71 | 1014.5 |
| 20260507015526 | 12 | 117 | 0.0 | 1.6 | 0.00 | 0.00 | 0.00 | 71 | 1014.5 |
| 20260507015021 | 12 | 117 | 0.0 | 1.6 | 0.00 | 0.00 | 0.00 | 71 | 1014.5 |
| 20260507014528 | 12 | 117 | 0.0 | 0.0 | 0.00 | 0.00 | 0.00 | 71 | 1014.5 |
| 20260507014010 | 12 | 117 | 0.0 | 1.6 | 0.00 | 0.00 | 0.00 | 71 | 1014.4 |
| 20260507013504 | 12 | 117 | 0.0 | 1.6 | 0.00 | 0.00 | 0.00 | 71 | 1014.4 |
| 20260507012956 | 12 | 116 | 0.0 | 1.6 | 0.00 | 0.00 | 0.00 | 71 | 1014.2 |
| 20260507012452 | 12 | 117 | 0.0 | 3.2 | 0.00 | 0.00 | 0.00 | 71 | 1014.1 |
| 20260507011946 | 12 | 117 | 0.0 | 3.2 | 0.00 | 0.00 | 0.00 | 71 | 1014.1 |
| 20260507010933 | 12 | 79 | 0.0 | 0.0 | 0.00 | 0.00 | 0.00 | 72 | 1014.2 |
| 20260507010427 | 12 | 79 | 0.0 | 0.0 | 0.00 | 0.00 | 0.00 | 72 | 1014.2 |
| 20260507005415 | 12 | 79 | 0.0 | 1.6 | 0.00 | 0.00 | 0.00 | 72 | 1014.0 |
| 20260507004910 | 12 | 79 | 0.0 | 1.6 | 0.00 | 0.00 | 0.00 | 72 | 1014.0 |
| 20260507004404 | 12 | 79 | 0.0 | 1.6 | 0.00 | 0.00 | 0.00 | 72 | 1014.0 |
| 20260507002845 | 11 | 79 | 0.0 | 1.6 | 0.00 | 0.00 | 0.00 | 73 | 1013.9 |
| 20260507002338 | 11 | 79 | 1.6 | 6.4 | 0.00 | 0.00 | 0.00 | 73 | 1013.8 |
| 20260507001833 | 11 | 79 | 3.2 | 9.7 | 0.00 | 0.00 | 0.00 | 73 | 1013.8 |
| 20260507001328 | 11 | 72 | 0.0 | 9.7 | 0.00 | 0.00 | 0.00 | 72 | 1013.8 |
| 20260507000828 | 11 | 272 | 0.0 | 1.6 | 0.00 | 0.00 | 0.00 | 73 | 1013.9 |
| 20260507000328 | 11 | 273 | 0.0 | 1.6 | 0.00 | 0.00 | 0.00 | 73 | 1014.0 |
| 20260506235830 | 11 | 272 | 0.0 | 1.6 | 0.00 | 0.00 | 0.00 | 72 | 1014.0 |
| 20260506235325 | 11 | 273 | 0.0 | 0.0 | 0.00 | 0.00 | 0.00 | 71 | 1014.0 |
| 20260506234838 | 12 | 272 | 0.0 | 0.0 | 0.00 | 0.00 | 0.00 | 71 | 1014.0 |
| 20260506234325 | 12 | 273 | 0.0 | 1.6 | 0.00 | 0.00 | 0.00 | 71 | 1014.0 |
| 20260506233826 | 12 | 273 | 0.0 | 1.6 | 0.00 | 0.00 | 0.00 | 71 | 1014.0 |
| 20260506233322 | 12 | 272 | 0.0 | 1.6 | 0.00 | 0.00 | 0.00 | 71 | 1014.0 |
| 20260506232819 | 12 | 273 | 0.0 | 1.6 | 0.00 | 0.00 | 0.00 | 70 | 1014.1 |
| 20260506232320 | 12 | 273 | 0.0 | 1.6 | 0.00 | 0.00 | 0.00 | 70 | 1014.1 |
| 20260506231820 | 12 | 273 | 0.0 | 1.6 | 0.00 | 0.00 | 0.00 | 70 | 1014.1 |
| 20260506231334 | 12 | 273 | 0.0 | 1.6 | 0.00 | 0.00 | 0.00 | 70 | 1014.0 |
| 20260506230819 | 12 | 273 | 0.0 | 1.6 | 0.00 | 0.00 | 0.00 | 69 | 1014.0 |
| 20260506230319 | 12 | 273 | 0.0 | 1.6 | 0.00 | 0.00 | 0.00 | 68 | 1014.0 |
| 20260506225321 | 13 | 273 | 0.0 | 1.6 | 0.00 | 0.00 | 0.00 | 68 | 1014.0 |
| 20260506224817 | 13 | 273 | 0.0 | 1.6 | 0.00 | 0.00 | 0.00 | 67 | 1014.0 |
| 20260506224318 | 13 | 273 | 0.0 | 0.0 | 0.00 | 0.00 | 0.00 | 67 | 1014.0 |
| 20260506223830 | 13 | 273 | 0.0 | 0.0 | 0.00 | 0.00 | 0.00 | 68 | 1013.9 |
| 20260506223319 | 13 | 273 | 0.0 | 1.6 | 0.00 | 0.00 | 0.00 | 67 | 1013.9 |
| 20260506222316 | 13 | 243 | 0.0 | 0.0 | 0.00 | 0.00 | 0.00 | 66 | 1013.9 |
| 20260506221820 | 13 | 244 | 0.0 | 0.0 | 0.00 | 0.00 | 0.00 | 65 | 1013.9 |
| 20260506215818 | 14 | 245 | 0.0 | 1.6 | 0.00 | 0.00 | 0.00 | 63 | 1013.8 |
| 20260506215317 | 14 | 244 | 0.0 | 1.6 | 0.00 | 0.00 | 0.00 | 63 | 1013.9 |
| 20260506214819 | 14 | 243 | 0.0 | 1.6 | 0.00 | 0.00 | 0.00 | 63 | 1013.8 |
| 20260506214314 | 14 | 243 | 0.0 | 1.6 | 0.00 | 0.00 | 0.00 | 63 | 1013.7 |
| 20260506213811 | 14 | 273 | 0.0 | 1.6 | 0.00 | 0.00 | 0.00 | 62 | 1013.7 |
| 20260506213311 | 14 | 273 | 0.0 | 1.6 | 0.00 | 0.00 | 0.00 | 62 | 1013.6 |
| 20260506212307 | 15 | 273 | 0.0 | 3.2 | 0.00 | 0.00 | 0.00 | 61 | 1013.6 |
| 20260506211809 | 15 | 273 | 0.0 | 3.2 | 0.00 | 0.00 | 0.00 | 60 | 1013.6 |
| 20260506211310 | 15 | 273 | 0.0 | 1.6 | 0.00 | 0.00 | 0.00 | 59 | 1013.6 |
| 20260506210805 | 15 | 273 | 0.0 | 3.2 | 0.00 | 0.00 | 0.00 | 58 | 1013.6 |
| 20260506210303 | 15 | 271 | 0.0 | 4.8 | 0.00 | 0.00 | 0.00 | 58 | 1013.6 |
| 20260506205804 | 15 | 247 | 0.0 | 4.8 | 0.00 | 0.00 | 0.00 | 57 | 1013.6 |
| 20260506204801 | 16 | 273 | 0.0 | 1.6 | 0.00 | 0.00 | 0.00 | 57 | 1013.6 |
| 20260506203758 | 16 | 272 | 0.0 | 1.6 | 0.00 | 0.00 | 0.00 | 56 | 1013.6 |
| 20260506203300 | 16 | 273 | 0.0 | 1.6 | 0.00 | 0.00 | 0.00 | 56 | 1013.6 |
| 20260506202758 | 16 | 273 | 0.0 | 1.6 | 0.00 | 0.00 | 0.00 | 55 | 1013.6 |
| 20260506202258 | 16 | 273 | 0.0 | 6.4 | 0.00 | 0.00 | 0.00 | 54 | 1013.6 |
| 20260506201755 | 16 | 273 | 1.6 | 6.4 | 0.00 | 0.00 | 0.00 | 53 | 1013.5 |
| 20260506201254 | 16 | 273 | 1.6 | 9.7 | 0.00 | 0.00 | 0.00 | 53 | 1013.5 |
| 20260506200756 | 17 | 273 | 0.0 | 9.7 | 0.00 | 0.00 | 0.00 | 53 | 1013.5 |
| 20260506200256 | 17 | 273 | 0.0 | 6.4 | 0.00 | 0.00 | 0.00 | 53 | 1013.6 |
| 20260506195752 | 17 | 273 | 0.0 | 4.8 | 0.00 | 0.00 | 0.00 | 53 | 1013.5 |
| 20260506195253 | 17 | 273 | 1.6 | 8.0 | 0.00 | 0.00 | 0.00 | 52 | 1013.5 |
| 20260506194752 | 17 | 273 | 1.6 | 8.0 | 0.00 | 0.00 | 0.00 | 52 | 1013.3 |
| 20260506194252 | 17 | 273 | 1.6 | 8.0 | 0.00 | 0.00 | 0.00 | 52 | 1013.4 |
| 20260506193747 | 17 | 273 | 1.6 | 8.0 | 0.00 | 0.00 | 0.00 | 52 | 1013.4 |
| 20260506193302 | 17 | 273 | 1.6 | 8.0 | 0.00 | 0.00 | 0.00 | 51 | 1013.3 |
| 20260506192244 | 17 | 273 | 0.0 | 4.8 | 0.00 | 0.00 | 0.00 | 51 | 1013.4 |
| 20260506191749 | 17 | 273 | 0.0 | 4.8 | 0.00 | 0.00 | 0.00 | 50 | 1013.4 |
| 20260506190234 | 17 | 272 | 1.6 | 6.4 | 0.00 | 0.00 | 0.00 | 49 | 1013.3 |
| 20260506185223 | 18 | 273 | 1.6 | 9.7 | 0.00 | 0.00 | 0.00 | 48 | 1013.1 |
| 20260506184717 | 18 | 273 | 0.0 | 6.4 | 0.00 | 0.00 | 0.00 | 48 | 1013.1 |
| 20260506183704 | 18 | 272 | 0.0 | 1.6 | 0.00 | 0.00 | 0.00 | 47 | 1013.0 |
| 20260506183159 | 18 | 273 | 0.0 | 1.6 | 0.00 | 0.00 | 0.00 | 47 | 1012.9 |
| 20260506182653 | 18 | 273 | 0.0 | 1.6 | 0.00 | 0.00 | 0.00 | 46 | 1012.8 |
| 20260506182146 | 18 | 273 | 0.0 | 3.2 | 0.00 | 0.00 | 0.00 | 46 | 1012.7 |
| 20260506181641 | 18 | 252 | 1.6 | 6.4 | 0.00 | 0.00 | 0.00 | 46 | 1012.7 |
| 20260506181134 | 18 | 11 | 1.6 | 9.7 | 0.00 | 0.00 | 0.00 | 47 | 1012.5 |
| 20260506180122 | 18 | 299 | 1.6 | 11.3 | 0.00 | 0.00 | 0.00 | 47 | 1012.2 |
| 20260506175616 | 18 | 300 | 1.6 | 6.4 | 0.00 | 0.00 | 0.00 | 48 | 1012.2 |
| 20260506175111 | 18 | 300 | 1.6 | 8.0 | 0.00 | 0.00 | 0.00 | 47 | 1012.2 |
| 20260506174604 | 18 | 50 | 3.2 | 9.7 | 0.00 | 0.00 | 0.00 | 47 | 1012.0 |
| 20260506173552 | 19 | 48 | 6.4 | 12.9 | 0.00 | 0.00 | 0.00 | 47 | 1011.9 |
| 20260506172540 | 19 | 8 | 4.8 | 19.3 | 0.00 | 0.00 | 0.00 | 47 | 1011.8 |
| 20260506172034 | 20 | 30 | 4.8 | 19.3 | 0.00 | 0.00 | 0.00 | 46 | 1011.7 |
| 20260506171528 | 20 | 50 | 4.8 | 14.5 | 0.00 | 0.00 | 0.00 | 46 | 1011.6 |
| 20260506170521 | 20 | 53 | 3.2 | 12.9 | 0.00 | 0.00 | 0.00 | 45 | 1011.5 |
| 20260506170011 | 20 | 34 | 6.4 | 17.7 | 0.00 | 0.00 | 0.00 | 45 | 1011.4 |
| 20260506164958 | 21 | 53 | 6.4 | 19.3 | 0.00 | 0.00 | 0.00 | 44 | 1011.3 |
| 20260506164452 | 21 | 41 | 4.8 | 16.1 | 0.00 | 0.00 | 0.00 | 43 | 1011.2 |
| 20260506163947 | 21 | 50 | 4.8 | 12.9 | 0.00 | 0.00 | 0.00 | 42 | 1011.3 |
| 20260506163441 | 21 | 288 | 8.0 | 19.3 | 0.00 | 0.00 | 0.00 | 41 | 1011.2 |
| 20260506162934 | 22 | 288 | 9.7 | 20.9 | 0.00 | 0.00 | 0.00 | 40 | 1011.2 |
| 20260506162429 | 23 | 287 | 6.4 | 20.9 | 0.00 | 0.00 | 0.00 | 37 | 1011.2 |
| 20260506161923 | 23 | 287 | 3.2 | 11.3 | 0.00 | 0.00 | 0.00 | 35 | 1011.1 |
| 20260506161418 | 24 | 287 | 4.8 | 11.3 | 0.00 | 0.00 | 0.00 | 35 | 1011.1 |
| 20260506160916 | 24 | 287 | 4.8 | 12.9 | 0.00 | 0.00 | 0.00 | 35 | 1011.1 |
| 20260506160407 | 24 | 287 | 4.8 | 12.9 | 0.00 | 0.00 | 0.00 | 34 | 1011.1 |
| 20260506154846 | 24 | 287 | 4.8 | 12.9 | 0.00 | 0.00 | 0.00 | 33 | 1011.2 |
| 20260506154346 | 24 | 287 | 4.8 | 11.3 | 0.00 | 0.00 | 0.00 | 33 | 1011.2 |
| 20260506153329 | 25 | 287 | 3.2 | 11.3 | 0.00 | 0.00 | 0.00 | 32 | 1011.2 |
| 20260506152822 | 25 | 287 | 3.2 | 9.7 | 0.00 | 0.00 | 0.00 | 30 | 1011.2 |
| 20260506152317 | 26 | 287 | 3.2 | 9.7 | 0.00 | 0.00 | 0.00 | 27 | 1011.2 |
| 20260506151810 | 26 | 286 | 3.2 | 8.0 | 0.00 | 0.00 | 0.00 | 27 | 1011.2 |